Time;durP1;ratioP1;P1;durP2;ratioP2;P2;SDS_P1;SDS_P2;PMS_P1;PMS_P2;Temp;Humidity;BMP_temperature;BMP_pressure;BME280_temperature;BME280_humidity;BME280_pressure;Samples;Min_cycle;Max_cycle;Signal;HPM_P1;HPM_P2
2022/07/18 00:01:49;;;;;;;175.83;166.90;;;16.10;92.40;;;;;;5011697;28;20175;-71
2022/07/18 00:04:15;;;;;;;174.63;165.77;;;16.20;93.60;;;;;;5011986;28;20184;-71
2022/07/18 00:06:41;;;;;;;173.33;164.67;;;16.20;93.80;;;;;;5013111;28;20183;-70
2022/07/18 00:09:07;;;;;;;147.93;140.43;;;16.10;94.00;;;;;;5011040;28;20268;-73
2022/07/18 00:11:32;;;;;;;125.23;119.00;;;16.10;95.30;;;;;;5012064;28;20186;-73
2022/07/18 00:13:59;;;;;;;61.77;58.67;;;15.90;95.90;;;;;;5013110;28;20180;-71
2022/07/18 00:16:25;;;;;;;45.67;43.13;;;15.80;97.30;;;;;;5011591;28;20714;-70
2022/07/18 00:18:51;;;;;;;21.30;20.07;;;15.80;98.40;;;;;;5011958;28;20176;-70
2022/07/18 00:21:17;;;;;;;29.83;28.33;;;15.80;99.80;;;;;;5012993;28;20187;-72
2022/07/18 00:23:44;;;;;;;14.10;13.40;;;15.90;99.90;;;;;;5012782;28;20191;-71
2022/07/18 00:26:10;;;;;;;19.30;18.33;;;15.80;99.90;;;;;;5011601;28;20219;-71
2022/07/18 00:28:36;;;;;;;19.40;18.43;;;15.80;99.90;;;;;;5011202;28;20187;-71
2022/07/18 00:31:02;;;;;;;39.27;37.33;;;15.80;99.90;;;;;;5012446;28;20257;-72
2022/07/18 00:33:27;;;;;;;26.80;25.47;;;15.80;99.90;;;;;;5012725;28;20186;-71
2022/07/18 00:35:53;;;;;;;15.83;14.90;;;15.70;99.90;;;;;;5012645;28;20891;-71
2022/07/18 00:38:19;;;;;;;18.33;17.00;;;15.70;99.90;;;;;;5011754;28;20190;-71
2022/07/18 00:40:45;;;;;;;80.63;76.73;;;15.60;99.90;;;;;;5012809;28;20222;-73
2022/07/18 00:43:14;;;;;;;36.20;34.40;;;15.70;99.90;;;;;;5012883;28;20195;-73
2022/07/18 00:45:48;;;;;;;27.03;25.73;;;15.80;99.90;;;;;;5012639;28;20203;-74
2022/07/18 00:48:14;;;;;;;9.53;9.07;;;15.70;99.90;;;;;;5011861;28;20889;-73
2022/07/18 00:50:41;;;;;;;14.97;14.10;;;15.70;99.90;;;;;;5012337;28;20291;-73
2022/07/18 00:53:07;;;;;;;10.23;9.67;;;15.60;99.90;;;;;;5012581;28;20544;-73
2022/07/18 00:55:34;;;;;;;10.00;9.53;;;15.60;99.90;;;;;;5027590;28;20196;-73
2022/07/18 00:58:00;;;;;;;35.27;33.57;;;15.50;99.90;;;;;;5011783;28;20219;-73
2022/07/18 01:03:10;;;;;;;35.30;33.43;;;15.40;99.90;;;;;;5012094;28;20640;-72
2022/07/18 01:05:36;;;;;;;32.73;30.93;;;15.40;99.90;;;;;;5012258;28;20210;-73
2022/07/18 01:08:03;;;;;;;60.33;56.97;;;15.40;99.90;;;;;;5012096;28;20184;-73
2022/07/18 01:10:29;;;;;;;13.43;12.80;;;15.40;99.90;;;;;;5012264;28;20241;-72
2022/07/18 01:12:55;;;;;;;38.57;36.07;;;15.40;99.90;;;;;;5011929;28;20191;-72
2022/07/18 01:15:20;;;;;;;44.57;42.23;;;15.30;99.90;;;;;;5010353;28;20692;-72
2022/07/18 01:17:47;;;;;;;53.40;50.77;;;15.20;99.90;;;;;;5010919;28;20179;-72
2022/07/18 01:20:12;;;;;;;36.37;34.57;;;15.20;99.90;;;;;;5011931;28;20233;-72
2022/07/18 01:22:41;;;;;;;25.10;23.63;;;15.20;99.90;;;;;;5009916;28;20183;-73
2022/07/18 01:25:10;;;;;;;23.40;22.27;;;15.10;99.90;;;;;;5011887;28;20618;-73
2022/07/18 01:27:36;;;;;;;24.47;23.17;;;15.10;99.90;;;;;;5010913;28;20184;-71
2022/07/18 01:30:04;;;;;;;19.17;18.17;;;15.10;99.90;;;;;;5010323;28;20273;-71
2022/07/18 01:32:30;;;;;;;27.43;21.40;;;15.00;99.90;;;;;;5011613;28;20644;-71
2022/07/18 01:34:56;;;;;;;28.47;26.60;;;14.90;99.90;;;;;;5011554;28;20203;-71
2022/07/18 01:37:22;;;;;;;29.77;28.37;;;14.80;99.90;;;;;;5010917;28;20186;-72
2022/07/18 01:39:49;;;;;;;13.17;12.57;;;14.80;99.90;;;;;;5011845;28;20226;-71
2022/07/18 01:42:15;;;;;;;11.33;10.73;;;14.70;99.90;;;;;;5010221;28;20187;-72
2022/07/18 01:44:41;;;;;;;9.07;8.57;;;14.80;99.90;;;;;;5009920;28;20199;-72
2022/07/18 01:47:09;;;;;;;11.73;11.13;;;14.80;99.90;;;;;;5010610;28;20194;-71
2022/07/18 01:49:36;;;;;;;8.23;7.73;;;14.80;99.90;;;;;;5011386;28;20290;-71
2022/07/18 01:52:03;;;;;;;14.70;14.00;;;14.70;99.90;;;;;;5010317;28;20225;-72
2022/07/18 01:54:32;;;;;;;8.60;8.07;;;14.60;99.90;;;;;;5011445;28;20176;-72
2022/07/18 01:57:00;;;;;;;8.60;8.00;;;14.50;99.90;;;;;;5010908;28;20179;-72
2022/07/18 01:59:26;;;;;;;7.07;6.77;;;14.50;99.90;;;;;;5013880;28;20183;-71
2022/07/18 02:01:52;;;;;;;8.00;7.50;;;14.40;99.90;;;;;;5024984;28;20648;-70
2022/07/18 02:04:19;;;;;;;6.83;5.90;;;14.40;99.90;;;;;;5015645;28;20190;-71
2022/07/18 02:06:45;;;;;;;7.03;6.43;;;14.40;99.90;;;;;;5010422;28;20187;-69
2022/07/18 02:09:11;;;;;;;8.03;7.43;;;14.30;99.90;;;;;;5010846;28;20183;-71
2022/07/18 02:11:37;;;;;;;10.53;9.90;;;14.20;99.90;;;;;;5025756;28;20180;-71
2022/07/18 02:14:04;;;;;;;14.93;14.20;;;14.20;99.90;;;;;;5009583;28;20249;-71
2022/07/18 02:16:31;;;;;;;9.00;8.40;;;14.20;99.90;;;;;;5009598;28;20210;-70
2022/07/18 02:18:57;;;;;;;13.70;12.70;;;14.20;99.90;;;;;;5009901;28;20211;-70
2022/07/18 02:21:23;;;;;;;9.80;9.30;;;14.20;99.90;;;;;;5011030;28;20253;-71
2022/07/18 02:23:50;;;;;;;9.83;9.33;;;14.10;99.90;;;;;;5009759;28;20190;-70
2022/07/18 02:26:17;;;;;;;22.17;20.83;;;14.00;99.90;;;;;;5011278;28;20580;-73
2022/07/18 02:28:43;;;;;;;155.33;147.27;;;13.80;99.90;;;;;;5008083;28;20673;-73
2022/07/18 02:31:09;;;;;;;167.87;159.40;;;13.70;99.90;;;;;;5011065;28;20635;-74
2022/07/18 02:33:34;;;;;;;188.50;178.50;;;13.80;99.90;;;;;;5013210;28;20175;-74
2022/07/18 02:36:00;;;;;;;202.37;191.97;;;14.00;99.90;;;;;;5015003;28;20294;-73
2022/07/18 02:38:26;;;;;;;184.43;175.03;;;13.90;99.90;;;;;;5012538;28;20592;-73
2022/07/18 02:40:53;;;;;;;134.77;128.00;;;14.00;99.90;;;;;;5013593;28;20187;-73
2022/07/18 02:43:19;;;;;;;190.20;180.43;;;13.90;99.90;;;;;;5014488;28;20180;-73
2022/07/18 02:45:44;;;;;;;129.67;123.13;;;13.80;99.90;;;;;;5014501;28;20215;-73
2022/07/18 02:48:10;;;;;;;76.20;72.37;;;13.80;99.90;;;;;;5013591;28;20176;-73
2022/07/18 02:50:37;;;;;;;98.03;92.97;;;13.80;99.90;;;;;;5014287;28;20229;-73
2022/07/18 02:53:02;;;;;;;189.80;180.37;;;13.80;99.90;;;;;;5014225;28;20184;-73
2022/07/18 02:55:28;;;;;;;214.40;203.07;;;13.80;99.90;;;;;;5014364;28;20290;-73
2022/07/18 02:57:54;;;;;;;189.00;179.43;;;13.80;99.90;;;;;;5013236;28;20184;-73
2022/07/18 03:00:20;;;;;;;116.03;110.07;;;13.80;99.90;;;;;;5014335;28;20201;-74
2022/07/18 03:02:46;;;;;;;95.83;90.87;;;13.70;99.90;;;;;;5013095;28;20179;-74
2022/07/18 03:05:12;;;;;;;108.90;103.40;;;13.70;99.90;;;;;;5014468;28;20207;-75
2022/07/18 03:07:38;;;;;;;149.90;142.53;;;13.70;99.90;;;;;;5013105;28;20183;-73
2022/07/18 03:10:06;;;;;;;52.33;49.63;;;13.60;99.90;;;;;;5012740;28;20667;-73
2022/07/18 03:12:32;;;;;;;37.93;36.03;;;13.50;99.90;;;;;;5013476;28;20652;-73
2022/07/18 03:14:59;;;;;;;39.60;37.37;;;13.40;99.90;;;;;;5014034;28;20204;-73
2022/07/18 03:17:25;;;;;;;38.87;36.60;;;13.40;99.90;;;;;;5011437;28;20238;-74
2022/07/18 03:19:51;;;;;;;74.03;70.37;;;13.30;99.90;;;;;;5013462;28;20187;-74
2022/07/18 03:22:16;;;;;;;96.30;91.43;;;13.30;99.90;;;;;;5013859;28;20250;-74
2022/07/18 03:24:43;;;;;;;93.87;89.30;;;13.40;99.90;;;;;;5013795;28;20211;-73
2022/07/18 03:27:09;;;;;;;84.10;80.00;;;13.40;99.90;;;;;;5013069;28;20192;-74
2022/07/18 03:29:35;;;;;;;144.90;137.87;;;13.30;99.90;;;;;;5011031;28;20249;-74
2022/07/18 03:32:01;;;;;;;109.07;103.80;;;13.30;99.90;;;;;;5012360;28;20180;-74
2022/07/18 03:34:27;;;;;;;136.83;129.63;;;13.20;99.90;;;;;;5013727;28;20184;-73
2022/07/18 03:36:53;;;;;;;91.53;87.07;;;13.20;99.90;;;;;;5012591;28;20234;-74
2022/07/18 03:39:19;;;;;;;68.20;64.83;;;13.20;99.90;;;;;;5013137;28;20179;-73
2022/07/18 03:41:45;;;;;;;90.10;85.57;;;13.20;99.90;;;;;;5011097;28;20609;-74
2022/07/18 03:44:11;;;;;;;55.97;53.07;;;13.10;99.90;;;;;;5012692;28;20180;-73
2022/07/18 03:46:37;;;;;;;94.40;89.67;;;13.10;99.90;;;;;;5013317;28;20203;-73
2022/07/18 03:49:03;;;;;;;57.57;54.13;;;13.10;99.90;;;;;;5011668;28;20184;-74
2022/07/18 03:51:29;;;;;;;85.17;80.87;;;13.00;99.90;;;;;;5010731;28;20203;-73
2022/07/18 03:53:55;;;;;;;89.50;84.90;;;13.00;99.90;;;;;;5013756;28;20547;-74
2022/07/18 03:56:21;;;;;;;72.10;68.17;;;13.00;99.90;;;;;;5004534;28;20203;-73
2022/07/18 03:58:47;;;;;;;80.10;75.90;;;13.00;99.90;;;;;;5013249;28;20238;-73
2022/07/18 04:01:13;;;;;;;75.97;72.07;;;13.00;99.90;;;;;;5012611;28;20184;-73
2022/07/18 04:03:39;;;;;;;84.53;80.33;;;13.10;99.90;;;;;;5032173;28;20670;-74
2022/07/18 04:06:06;;;;;;;81.57;77.47;;;13.20;99.90;;;;;;5032501;28;20203;-74
2022/07/18 04:08:32;;;;;;;43.93;41.67;;;13.20;99.90;;;;;;5031972;28;20188;-73
2022/07/18 04:10:58;;;;;;;51.40;48.70;;;13.20;99.90;;;;;;5032025;28;20210;-73
2022/07/18 04:13:24;;;;;;;64.93;61.87;;;13.20;99.90;;;;;;5032678;28;20205;-73
2022/07/18 04:15:50;;;;;;;53.77;51.07;;;13.20;99.90;;;;;;5012527;28;20747;-73
2022/07/18 04:18:16;;;;;;;56.70;53.83;;;13.20;99.90;;;;;;5010093;28;20274;-73
2022/07/18 04:20:41;;;;;;;34.80;32.87;;;13.30;99.90;;;;;;5012633;28;20183;-73
2022/07/18 04:23:09;;;;;;;13.60;12.40;;;13.40;99.90;;;;;;5013538;28;20234;-73
2022/07/18 04:25:40;;;;;;;9.67;8.90;;;13.40;99.90;;;;;;5013771;28;20219;-73
2022/07/18 04:28:08;;;;;;;16.37;15.53;;;13.40;99.90;;;;;;5012430;28;20732;-73
2022/07/18 04:30:34;;;;;;;26.10;24.60;;;13.50;99.90;;;;;;5012834;28;20203;-75
2022/07/18 04:33:02;;;;;;;59.10;56.07;;;13.60;99.90;;;;;;5011778;28;20612;-75
2022/07/18 04:35:28;;;;;;;77.33;73.50;;;13.60;99.90;;;;;;5012772;28;20196;-74
2022/07/18 04:37:54;;;;;;;65.13;61.83;;;13.70;99.90;;;;;;5010491;28;20186;-74
2022/07/18 04:40:20;;;;;;;39.57;37.43;;;13.70;99.90;;;;;;5012008;28;20536;-74
2022/07/18 04:42:46;;;;;;;15.13;13.97;;;13.80;99.90;;;;;;5012330;28;20542;-74
2022/07/18 04:45:12;;;;;;;12.63;11.83;;;13.80;99.90;;;;;;5012506;28;20211;-74
2022/07/18 04:47:39;;;;;;;15.63;14.10;;;13.90;99.90;;;;;;5010670;28;20183;-74
2022/07/18 04:50:05;;;;;;;22.47;21.17;;;14.00;99.90;;;;;;5011243;28;20683;-73
2022/07/18 04:52:40;;;;;;;22.67;21.37;;;14.10;99.90;;;;;;5012185;28;20300;-75
2022/07/18 04:55:07;;;;;;;52.23;49.63;;;14.20;99.90;;;;;;5011299;28;20196;-73
2022/07/18 04:57:34;;;;;;;15.40;14.27;;;14.40;99.90;;;;;;5010280;28;20176;-73
2022/07/18 05:00:04;;;;;;;12.43;9.47;;;14.60;99.90;;;;;;5011465;28;20280;-73
2022/07/18 05:02:31;;;;;;;7.27;6.57;;;14.70;99.90;;;;;;5009961;28;20184;-73
2022/07/18 05:04:56;;;;;;;5.50;5.00;;;14.90;99.90;;;;;;5010404;28;20207;-73
2022/07/18 05:07:22;;;;;;;5.87;5.57;;;15.10;99.90;;;;;;5010038;28;20191;-74
2022/07/18 05:09:48;;;;;;;5.50;5.00;;;15.30;99.90;;;;;;5012267;28;20215;-73
2022/07/18 05:12:14;;;;;;;5.00;4.60;;;15.50;99.90;;;;;;5011741;28;20684;-73
2022/07/18 05:14:40;;;;;;;6.33;5.43;;;15.90;99.90;;;;;;5011639;28;20251;-74
2022/07/18 05:17:06;;;;;;;29.63;27.93;;;16.40;99.90;;;;;;5011631;28;20190;-74
2022/07/18 05:19:32;;;;;;;21.80;20.60;;;17.00;99.90;;;;;;5012415;28;20196;-74
2022/07/18 05:21:58;;;;;;;47.90;45.50;;;17.50;99.90;;;;;;5011867;28;20234;-74
2022/07/18 05:24:24;;;;;;;14.80;13.80;;;18.00;99.90;;;;;;5012043;28;20187;-74
2022/07/18 05:26:50;;;;;;;5.22;4.80;;;18.40;99.90;;;;;;5005347;28;20252;-74
2022/07/18 05:29:17;;;;;;;6.28;5.45;;;18.70;99.90;;;;;;5014024;28;20214;-73
2022/07/18 05:31:43;;;;;;;4.57;4.38;;;18.90;99.90;;;;;;5011574;28;20234;-74
2022/07/18 05:34:10;;;;;;;8.20;6.82;;;19.20;99.90;;;;;;5009975;28;20267;-74
2022/07/18 05:36:36;;;;;;;10.00;9.27;;;19.60;99.90;;;;;;5011334;28;20210;-74
2022/07/18 05:39:03;;;;;;;5.78;5.28;;;20.20;99.90;;;;;;5010608;28;20184;-74
2022/07/18 05:41:29;;;;;;;5.38;5.07;;;20.70;99.90;;;;;;5011294;28;20228;-74
2022/07/18 05:43:54;;;;;;;10.45;9.77;;;21.30;99.90;;;;;;5009741;28;20206;-73
2022/07/18 05:46:20;;;;;;;10.95;10.43;;;21.30;98.60;;;;;;5009957;28;20706;-74
2022/07/18 05:48:46;;;;;;;14.82;13.93;;;21.00;98.40;;;;;;5009182;28;20566;-74
2022/07/18 05:51:12;;;;;;;16.08;15.10;;;21.10;97.90;;;;;;5011429;28;20218;-74
2022/07/18 05:53:38;;;;;;;14.93;14.15;;;21.10;97.60;;;;;;5010170;28;20290;-73
2022/07/18 05:56:05;;;;;;;9.60;8.88;;;21.40;97.60;;;;;;5010091;28;20859;-75
2022/07/18 05:58:31;;;;;;;5.95;5.45;;;22.20;96.30;;;;;;5010542;28;20207;-71
2022/07/18 06:00:57;;;;;;;8.55;7.95;;;22.50;94.80;;;;;;5009574;28;20230;-75
2022/07/18 06:03:23;;;;;;;5.90;5.35;;;23.00;93.90;;;;;;5011295;28;20712;-77
2022/07/18 06:05:49;;;;;;;5.05;4.72;;;23.40;91.40;;;;;;5011245;28;20203;-75
2022/07/18 06:08:17;;;;;;;10.43;7.95;;;23.70;90.80;;;;;;5010061;28;20190;-74
2022/07/18 06:10:43;;;;;;;12.13;11.23;;;23.90;88.60;;;;;;5010310;28;20218;-77
2022/07/18 06:13:08;;;;;;;9.25;8.70;;;24.10;87.90;;;;;;5011095;28;20171;-76
2022/07/18 06:15:35;;;;;;;8.48;7.72;;;23.70;86.90;;;;;;5011155;28;20207;-76
2022/07/18 06:18:00;;;;;;;8.73;8.13;;;23.70;85.70;;;;;;4996032;28;20238;-77
2022/07/18 06:20:26;;;;;;;11.10;10.50;;;23.80;85.30;;;;;;5010247;28;20565;-76
2022/07/18 06:22:52;;;;;;;12.55;11.65;;;24.30;90.00;;;;;;5019454;28;20183;-77
2022/07/18 06:25:18;;;;;;;6.78;6.38;;;24.70;90.50;;;;;;5029736;28;20221;-77
2022/07/18 06:27:44;;;;;;;5.80;5.38;;;25.00;81.50;;;;;;5031399;28;20187;-79
2022/07/18 06:30:10;;;;;;;6.22;5.72;;;24.90;81.20;;;;;;5030796;28;20682;-78
2022/07/18 06:32:37;;;;;;;6.78;6.38;;;25.00;79.10;;;;;;5028725;28;20328;-79
2022/07/18 06:35:03;;;;;;;6.95;6.45;;;25.40;83.20;;;;;;5022905;28;20203;-78
2022/07/18 06:37:29;;;;;;;5.28;4.88;;;25.60;86.40;;;;;;5009821;28;20290;-78
2022/07/18 06:39:55;;;;;;;4.80;4.40;;;25.90;81.70;;;;;;5020478;28;20183;-77
2022/07/18 06:42:21;;;;;;;5.70;4.07;;;26.30;76.80;;;;;;5014335;28;20735;-77
2022/07/18 06:44:47;;;;;;;5.28;4.82;;;26.50;76.20;;;;;;5011254;28;20282;-77
2022/07/18 06:47:12;;;;;;;4.35;4.05;;;26.90;68.70;;;;;;5012623;28;20267;-77
2022/07/18 06:49:38;;;;;;;5.75;5.25;;;26.70;73.40;;;;;;5015412;28;20214;-77
2022/07/18 06:52:04;;;;;;;5.32;4.65;;;26.90;70.90;;;;;;5014447;28;20220;-78
2022/07/18 06:54:30;;;;;;;8.57;7.97;;;27.10;72.50;;;;;;5012851;28;20752;-78
2022/07/18 06:56:56;;;;;;;6.32;5.82;;;27.20;69.50;;;;;;5010399;28;20583;-78
2022/07/18 06:59:22;;;;;;;14.38;13.30;;;27.40;70.90;;;;;;4998930;28;20189;-78
2022/07/18 07:01:48;;;;;;;12.52;11.82;;;27.60;63.20;;;;;;5007362;28;20653;-78
2022/07/18 07:04:14;;;;;;;24.92;23.70;;;27.70;69.40;;;;;;5012852;28;20190;-78
2022/07/18 07:06:40;;;;;;;26.30;24.50;;;27.80;63.40;;;;;;5029096;28;20171;-78
2022/07/18 07:09:06;;;;;;;22.48;21.17;;;27.60;61.40;;;;;;5030648;28;20183;-79
2022/07/18 07:11:32;;;;;;;17.27;16.35;;;27.40;62.60;;;;;;5030230;28;20597;-78
2022/07/18 07:13:58;;;;;;;30.30;28.50;;;27.40;64.60;;;;;;5029399;28;20210;-78
2022/07/18 07:16:24;;;;;;;29.13;27.58;;;27.80;59.00;;;;;;5028150;28;20223;-78
2022/07/18 07:18:50;;;;;;;27.35;25.95;;;27.60;58.70;;;;;;5010926;28;20664;-78
2022/07/18 07:21:15;;;;;;;31.08;29.13;;;27.70;58.80;;;;;;5014402;28;20580;-79
2022/07/18 07:23:41;;;;;;;35.33;33.58;;;28.00;56.30;;;;;;5016111;28;20679;-80
2022/07/18 07:26:08;;;;;;;30.13;28.33;;;28.40;58.50;;;;;;5014257;28;20219;-77
2022/07/18 07:28:34;;;;;;;36.45;34.70;;;28.30;55.80;;;;;;5013269;28;20184;-77
2022/07/18 07:31:00;;;;;;;48.47;46.00;;;28.50;56.50;;;;;;5014214;28;20350;-77
2022/07/18 07:33:25;;;;;;;43.63;41.47;;;28.80;59.10;;;;;;5014174;28;20179;-78
2022/07/18 07:35:51;;;;;;;56.05;53.35;;;29.20;61.50;;;;;;5017173;28;20622;-79
2022/07/18 07:38:22;;;;;;;131.45;124.68;;;29.70;57.90;;;;;;5028328;28;20183;-79
2022/07/18 07:40:48;;;;;;;141.60;134.68;;;29.90;54.00;;;;;;5038347;28;20237;-79
2022/07/18 07:43:16;;;;;;;193.00;183.70;;;29.90;55.10;;;;;;5039279;28;20256;-77
2022/07/18 07:45:48;;;;;;;168.55;160.27;;;30.20;53.70;;;;;;5035199;28;20206;-76
2022/07/18 07:48:14;;;;;;;175.18;166.18;;;30.20;52.10;;;;;;5032443;28;20692;-76
2022/07/18 07:50:40;;;;;;;153.93;146.48;;;30.10;55.60;;;;;;5033278;28;20207;-75
2022/07/18 07:53:06;;;;;;;173.57;165.13;;;30.20;56.50;;;;;;5022331;28;20190;-75
2022/07/18 07:55:32;;;;;;;181.70;172.70;;;30.40;53.60;;;;;;5011822;28;20231;-75
2022/07/18 07:57:58;;;;;;;170.25;161.90;;;30.60;53.70;;;;;;5011159;28;20196;-75
2022/07/18 08:00:25;;;;;;;135.38;128.75;;;30.90;53.10;;;;;;5027177;28;20321;-75
2022/07/18 08:02:55;;;;;;;121.25;115.07;;;31.10;52.60;;;;;;5032159;28;20183;-74
2022/07/18 08:05:21;;;;;;;110.45;105.22;;;31.40;51.90;;;;;;5033090;28;20211;-74
2022/07/18 08:07:47;;;;;;;94.65;90.07;;;31.70;52.80;;;;;;5031889;28;20182;-74
2022/07/18 08:10:13;;;;;;;98.50;93.78;;;32.10;50.70;;;;;;5031474;28;20679;-75
2022/07/18 08:12:39;;;;;;;96.82;92.07;;;32.10;51.20;;;;;;5015546;28;20172;-76
2022/07/18 08:15:06;;;;;;;140.25;133.27;;;32.10;51.80;;;;;;5011805;28;20203;-75
2022/07/18 08:17:32;;;;;;;114.22;108.85;;;32.20;49.40;;;;;;5009850;28;20196;-76
2022/07/18 08:20:01;;;;;;;161.27;153.40;;;32.20;50.30;;;;;;5011515;28;20198;-76
2022/07/18 08:22:27;;;;;;;171.95;163.43;;;32.40;49.20;;;;;;5011661;28;20198;-75
2022/07/18 08:24:54;;;;;;;185.07;176.15;;;32.30;49.20;;;;;;5011388;28;20699;-75
2022/07/18 08:27:20;;;;;;;164.07;156.02;;;32.00;48.60;;;;;;5012095;28;20187;-77
2022/07/18 08:29:46;;;;;;;175.80;167.13;;;32.30;49.80;;;;;;5012176;28;20675;-76
2022/07/18 08:32:13;;;;;;;199.27;189.60;;;32.40;48.70;;;;;;5012435;28;20262;-74
2022/07/18 08:34:39;;;;;;;224.40;213.30;;;32.50;48.20;;;;;;5011751;28;20281;-74
2022/07/18 08:37:05;;;;;;;242.77;231.05;;;32.60;48.80;;;;;;5010774;28;20873;-74
2022/07/18 08:39:31;;;;;;;244.15;232.07;;;32.90;46.80;;;;;;5011197;28;20187;-74
2022/07/18 08:42:00;;;;;;;256.77;244.18;;;32.70;48.30;;;;;;5012884;28;20182;-74
2022/07/18 08:44:28;;;;;;;247.85;235.48;;;32.40;45.00;;;;;;5010957;28;20190;-74
2022/07/18 08:46:59;;;;;;;250.50;238.10;;;31.70;46.50;;;;;;5009842;28;20180;-75
2022/07/18 08:49:26;;;;;;;220.63;210.05;;;31.90;45.20;;;;;;5030102;28;20229;-74
2022/07/18 08:51:53;;;;;;;159.38;151.88;;;31.30;43.30;;;;;;5033071;28;20395;-75
2022/07/18 08:54:19;;;;;;;136.93;130.25;;;31.00;47.70;;;;;;5031935;28;20194;-75
2022/07/18 08:56:45;;;;;;;160.55;152.75;;;31.80;47.10;;;;;;5030477;28;20183;-78
2022/07/18 08:59:11;;;;;;;208.65;198.05;;;32.70;46.20;;;;;;5032263;28;20584;-74
2022/07/18 09:01:37;;;;;;;232.98;221.60;;;33.10;44.10;;;;;;5030770;28;20278;-75
2022/07/18 09:04:14;;;;;;;240.90;228.98;;;33.50;42.20;;;;;;5033103;28;20187;-76
2022/07/18 09:06:52;;;;;;;259.27;246.57;;;33.40;42.90;;;;;;5032070;28;20209;-75
2022/07/18 09:09:18;;;;;;;272.70;259.10;;;33.50;45.60;;;;;;5029860;28;20179;-75
2022/07/18 09:11:57;;;;;;;165.18;157.23;;;34.20;44.00;;;;;;5032006;28;20249;-75
2022/07/18 09:14:38;;;;;;;32.65;30.67;;;34.70;42.00;;;;;;5032149;28;20181;-77
2022/07/18 09:17:13;;;;;;;12.10;11.60;;;35.00;40.70;;;;;;5031108;28;20206;-75
2022/07/18 09:19:48;;;;;;;15.88;15.02;;;34.90;38.50;;;;;;5031533;28;20241;-75
2022/07/18 09:22:22;;;;;;;45.33;43.08;;;34.60;41.50;;;;;;5031493;28;20179;-75
2022/07/18 09:24:54;;;;;;;11.35;10.65;;;34.90;42.20;;;;;;5030514;28;20213;-75
2022/07/18 09:27:29;;;;;;;8.43;7.88;;;35.40;38.50;;;;;;5031131;28;20189;-75
2022/07/18 09:30:25;;;;;;;5.95;5.65;;;35.60;39.10;;;;;;5029864;28;20216;-75
2022/07/18 09:32:53;;;;;;;6.85;6.45;;;35.40;34.80;;;;;;5030887;28;20175;-75
2022/07/18 09:35:21;;;;;;;8.40;8.00;;;35.20;36.40;;;;;;5029865;28;20191;-76
2022/07/18 09:38:07;;;;;;;9.07;8.45;;;35.50;36.60;;;;;;5029451;28;20206;-76
2022/07/18 09:40:39;;;;;;;8.55;8.05;;;35.60;33.30;;;;;;5047155;22;20542;-75
2022/07/18 09:43:13;;;;;;;8.27;7.88;;;35.10;32.50;;;;;;5009871;28;20270;-77
2022/07/18 09:45:44;;;;;;;7.30;6.88;;;35.00;33.50;;;;;;5010824;28;20186;-76
2022/07/18 09:48:19;;;;;;;6.15;5.70;;;34.80;33.10;;;;;;5011851;28;20180;-78
2022/07/18 09:50:58;;;;;;;7.25;6.78;;;34.80;35.10;;;;;;5013991;28;20238;-77
2022/07/18 09:53:27;;;;;;;5.88;5.35;;;35.40;32.90;;;;;;5012403;28;20186;-81
2022/07/18 09:55:57;;;;;;;6.05;5.78;;;35.50;34.60;;;;;;5013435;28;20182;-79
2022/07/18 09:58:26;;;;;;;5.63;5.18;;;35.70;34.90;;;;;;5023573;28;20179;-76
2022/07/18 10:00:55;;;;;;;5.53;5.32;;;35.70;34.40;;;;;;5010783;28;20203;-78
2022/07/18 10:03:22;;;;;;;4.97;4.63;;;35.40;34.70;;;;;;5010719;28;20254;-78
2022/07/18 10:05:49;;;;;;;7.55;7.25;;;35.40;34.50;;;;;;5011670;28;20207;-77
2022/07/18 10:08:18;;;;;;;7.07;6.75;;;35.50;36.10;;;;;;5010507;28;20183;-76
2022/07/18 10:10:47;;;;;;;7.78;7.43;;;36.20;33.60;;;;;;5010822;28;20692;-77
2022/07/18 10:13:13;;;;;;;4.22;4.03;;;36.40;32.90;;;;;;5011138;28;20782;-77
2022/07/18 10:15:42;;;;;;;5.82;5.57;;;36.30;32.90;;;;;;5010583;28;20206;-78
2022/07/18 10:18:18;;;;;;;6.95;6.65;;;36.40;34.00;;;;;;5011782;28;20717;-78
2022/07/18 10:20:54;;;;;;;5.75;5.55;;;36.70;32.70;;;;;;5011974;28;20228;-77
2022/07/18 10:23:26;;;;;;;5.15;4.95;;;36.40;32.10;;;;;;5011342;28;20798;-78
2022/07/18 10:26:14;;;;;;;7.75;7.15;;;36.00;32.10;;;;;;5010687;28;20747;-79
2022/07/18 10:28:55;;;;;;;4.53;4.18;;;35.70;33.60;;;;;;5010499;28;20188;-78
2022/07/18 10:31:38;;;;;;;7.55;7.18;;;36.20;33.20;;;;;;5011808;28;20277;-77
2022/07/18 10:34:07;;;;;;;6.57;6.28;;;35.70;33.30;;;;;;5015218;28;20267;-79
2022/07/18 10:37:03;;;;;;;4.15;3.95;;;35.70;33.60;;;;;;5011870;28;20171;-79
2022/07/18 10:39:36;;;;;;;4.47;4.10;;;36.00;34.40;;;;;;5014496;28;20191;-79
2022/07/18 10:42:02;;;;;;;6.32;5.93;;;36.40;34.40;;;;;;5017713;28;20250;-80
2022/07/18 10:44:28;;;;;;;7.35;6.85;;;36.40;35.30;;;;;;5010499;28;20210;-76
2022/07/18 10:47:10;;;;;;;5.50;5.07;;;36.90;33.30;;;;;;5009351;28;20256;-77
2022/07/18 10:49:47;;;;;;;5.78;5.38;;;37.00;32.40;;;;;;5011595;28;20203;-80
2022/07/18 10:52:26;;;;;;;6.63;6.32;;;36.90;32.90;;;;;;5009019;28;20203;-80
2022/07/18 10:55:08;;;;;;;5.45;5.05;;;37.30;32.40;;;;;;5012594;28;20183;-78
2022/07/18 10:57:54;;;;;;;4.53;4.22;;;37.60;32.20;;;;;;5013629;28;20179;-79
2022/07/18 11:00:23;;;;;;;4.85;4.60;;;37.70;31.00;;;;;;4999259;28;20660;-78
2022/07/18 11:03:09;;;;;;;4.07;3.78;;;37.60;31.40;;;;;;5014483;28;20662;-76
2022/07/18 11:05:35;;;;;;;5.03;4.30;;;37.70;31.20;;;;;;5013452;28;20183;-78
2022/07/18 11:08:01;;;;;;;4.68;4.38;;;37.50;31.10;;;;;;5012623;28;20225;-80
2022/07/18 11:10:50;;;;;;;3.72;3.53;;;37.20;32.60;;;;;;5015439;28;20269;-80
2022/07/18 11:13:28;;;;;;;3.55;3.40;;;37.40;32.90;;;;;;5014216;28;20849;-76
2022/07/18 11:16:06;;;;;;;3.95;3.65;;;37.70;31.00;;;;;;5013976;28;20179;-80
2022/07/18 11:18:55;;;;;;;4.55;4.35;;;37.90;32.00;;;;;;5013517;28;20179;-80
2022/07/18 11:21:34;;;;;;;3.75;3.50;;;38.60;32.20;;;;;;5015659;28;20623;-79
2022/07/18 11:24:08;;;;;;;3.85;3.63;;;38.50;31.30;;;;;;5025764;28;20187;-81
2022/07/18 11:26:42;;;;;;;3.40;3.20;;;38.50;32.50;;;;;;5014600;28;20660;-78
2022/07/18 11:29:11;;;;;;;3.47;2.90;;;39.20;30.00;;;;;;5014700;28;20694;-80
2022/07/18 11:31:50;;;;;;;3.58;3.33;;;39.70;29.80;;;;;;5015135;28;20207;-80
2022/07/18 11:34:19;;;;;;;2.97;2.88;;;39.60;31.00;;;;;;5015377;28;20237;-80
2022/07/18 11:36:46;;;;;;;3.13;2.92;;;40.10;29.40;;;;;;5013483;28;20232;-80
2022/07/18 11:39:14;;;;;;;5.05;4.70;;;40.30;29.90;;;;;;5014784;28;20176;-80
2022/07/18 11:41:40;;;;;;;3.63;3.42;;;40.30;28.80;;;;;;5019378;28;20294;-78
2022/07/18 11:44:17;;;;;;;3.42;3.20;;;39.80;29.90;;;;;;5017469;28;20196;-81
2022/07/18 11:46:44;;;;;;;4.22;4.00;;;39.70;29.10;;;;;;5013972;28;20180;-76
2022/07/18 11:49:10;;;;;;;3.80;3.60;;;39.80;28.70;;;;;;5014905;28;20208;-80
2022/07/18 11:51:38;;;;;;;3.45;3.35;;;39.10;29.00;;;;;;5014566;28;20289;-80
2022/07/18 11:54:05;;;;;;;4.32;3.05;;;38.70;31.30;;;;;;5014922;28;20172;-78
2022/07/18 11:56:32;;;;;;;3.50;3.00;;;39.40;30.60;;;;;;5014239;28;20676;-79
2022/07/18 11:58:59;;;;;;;3.05;2.95;;;38.90;30.70;;;;;;5011737;28;20187;-80
2022/07/18 12:01:32;;;;;;;2.80;2.65;;;39.30;31.10;;;;;;5013866;28;20204;-79
2022/07/18 12:03:58;;;;;;;3.72;3.33;;;39.50;31.10;;;;;;5018257;28;20176;-79
2022/07/18 12:06:24;;;;;;;3.75;3.55;;;39.70;29.70;;;;;;5017313;28;20179;-77
2022/07/18 12:09:05;;;;;;;5.10;3.70;;;40.10;28.90;;;;;;5013158;28;20656;-80
2022/07/18 12:11:36;;;;;;;7.55;6.95;;;40.30;30.00;;;;;;5014011;28;20215;-80
2022/07/18 12:14:07;;;;;;;7.53;7.07;;;40.70;29.30;;;;;;5014108;28;20182;-79
2022/07/18 12:16:36;;;;;;;3.72;3.63;;;40.90;30.10;;;;;;5013657;28;20183;-79
2022/07/18 12:19:21;;;;;;;2.97;2.78;;;41.40;28.80;;;;;;5014549;28;20203;-79
2022/07/18 12:21:55;;;;;;;2.60;2.50;;;41.50;28.60;;;;;;5014152;28;20553;-80
2022/07/18 12:24:27;;;;;;;3.00;2.80;;;41.60;29.10;;;;;;5014904;28;20186;-80
2022/07/18 12:27:17;;;;;;;4.32;2.83;;;41.70;29.70;;;;;;5013339;28;20283;-81
2022/07/18 12:30:19;;;;;;;2.80;2.70;;;41.20;28.30;;;;;;5013970;28;20203;-80
2022/07/18 12:32:56;;;;;;;2.67;2.58;;;41.50;28.00;;;;;;5000621;28;20191;-79
2022/07/18 12:35:27;;;;;;;2.60;2.50;;;41.70;27.40;;;;;;5013210;28;20180;-79
2022/07/18 12:38:05;;;;;;;2.83;2.72;;;41.50;28.60;;;;;;5011010;28;20606;-79
2022/07/18 12:40:57;;;;;;;3.97;3.78;;;41.50;28.00;;;;;;5012662;28;20246;-79